createdAt,value
2017-10-26T00:00:20.630Z,988.6
2017-10-26T00:01:22.528Z,988.7
2017-10-26T00:02:24.809Z,988.6
2017-10-26T00:03:26.733Z,988.6
2017-10-26T00:04:28.765Z,988.6
2017-10-26T00:05:30.637Z,988.6
2017-10-26T00:06:32.637Z,988.6
2017-10-26T00:07:34.565Z,988.5
2017-10-26T00:08:36.438Z,988.6
2017-10-26T00:09:38.649Z,988.6
2017-10-26T00:10:40.592Z,988.6
2017-10-26T00:11:42.511Z,988.6
2017-10-26T00:12:44.690Z,988.6
2017-10-26T00:13:46.599Z,988.6
2017-10-26T00:14:48.512Z,988.7
2017-10-26T00:15:50.431Z,988.7
2017-10-26T00:16:52.368Z,988.6
2017-10-26T00:17:54.300Z,988.7
2017-10-26T00:18:56.231Z,988.7
2017-10-26T00:19:58.185Z,988.7
2017-10-26T00:21:00.067Z,988.7
2017-10-26T00:22:02.086Z,988.7
2017-10-26T00:23:03.946Z,988.8
2017-10-26T00:24:05.837Z,988.8
2017-10-26T00:25:07.818Z,988.9
2017-10-26T00:26:09.715Z,988.9
2017-10-26T00:27:11.715Z,988.8
2017-10-26T00:28:13.651Z,988.9
2017-10-26T00:29:15.592Z,988.9
2017-10-26T00:30:17.518Z,988.9
2017-10-26T00:31:19.416Z,988.9
2017-10-26T00:32:21.345Z,988.9
2017-10-26T00:33:23.281Z,988.9
2017-10-26T00:34:25.227Z,988.9
2017-10-26T00:35:27.454Z,988.9
2017-10-26T00:36:29.514Z,989
2017-10-26T00:37:31.486Z,989
2017-10-26T00:38:34.167Z,989
2017-10-26T00:39:36.113Z,989
2017-10-26T00:40:38.097Z,989
2017-10-26T00:41:40.013Z,989
2017-10-26T00:42:41.859Z,988.9
2017-10-26T00:43:43.808Z,988.9
2017-10-26T00:44:45.652Z,988.9
2017-10-26T00:45:47.619Z,988.9
2017-10-26T00:46:49.502Z,988.9
2017-10-26T00:47:51.414Z,988.9
2017-10-26T00:48:53.449Z,988.9
2017-10-26T00:49:55.353Z,988.8
2017-10-26T00:50:57.700Z,988.8
2017-10-26T00:51:59.654Z,988.8
2017-10-26T00:53:01.593Z,988.8
2017-10-26T00:54:03.586Z,988.8
2017-10-26T00:55:05.567Z,988.8
2017-10-26T00:56:07.483Z,988.7
2017-10-26T00:57:09.426Z,988.7
2017-10-26T00:58:11.422Z,988.7
2017-10-26T00:59:13.345Z,988.7
2017-10-26T01:00:15.363Z,988.7
2017-10-26T01:01:17.306Z,988.7
2017-10-26T01:02:19.244Z,988.7
2017-10-26T01:03:21.210Z,988.7
2017-10-26T01:04:23.182Z,988.7
2017-10-26T01:05:25.134Z,988.6
2017-10-26T01:06:27.091Z,988.6
2017-10-26T01:07:29.054Z,988.6
2017-10-26T01:08:31.054Z,988.7
2017-10-26T01:09:32.981Z,988.7
2017-10-26T01:10:34.946Z,988.7
2017-10-26T01:11:37.210Z,988.6
2017-10-26T01:12:39.288Z,988.7
2017-10-26T01:13:41.170Z,988.6
2017-10-26T01:14:43.135Z,988.7
2017-10-26T01:15:45.018Z,988.7
2017-10-26T01:16:46.969Z,988.7
2017-10-26T01:17:48.895Z,988.6
2017-10-26T01:18:50.802Z,988.6
2017-10-26T01:19:52.741Z,988.6
2017-10-26T01:20:54.756Z,988.7
2017-10-26T01:21:56.754Z,988.6
2017-10-26T01:22:58.749Z,988.7
2017-10-26T01:24:00.880Z,988.7
2017-10-26T01:25:02.805Z,988.7
2017-10-26T01:26:04.753Z,988.7
2017-10-26T01:27:06.994Z,988.7
2017-10-26T01:28:08.971Z,988.7
2017-10-26T01:29:10.915Z,988.7
2017-10-26T01:30:12.812Z,988.7
2017-10-26T01:31:14.772Z,988.6
2017-10-26T01:32:16.708Z,988.7
2017-10-26T01:33:18.621Z,988.7
2017-10-26T01:34:20.501Z,988.7
2017-10-26T01:35:22.476Z,988.7
2017-10-26T01:36:24.387Z,988.7
2017-10-26T01:37:26.670Z,988.6
2017-10-26T01:38:28.562Z,988.6
2017-10-26T01:39:30.421Z,988.6
2017-10-26T01:40:32.335Z,988.7
2017-10-26T01:41:34.305Z,988.6
2017-10-26T01:42:36.256Z,988.6
2017-10-26T01:43:38.306Z,988.7
2017-10-26T01:44:40.231Z,988.7
2017-10-26T01:45:42.098Z,988.7
2017-10-26T01:46:44.008Z,988.8
2017-10-26T01:47:46.287Z,988.7
2017-10-26T01:48:48.214Z,988.7
2017-10-26T01:49:50.149Z,988.6
2017-10-26T01:50:52.067Z,988.7
2017-10-26T01:51:54.048Z,988.6
2017-10-26T01:52:56.304Z,988.7
2017-10-26T01:53:58.263Z,988.8
2017-10-26T01:55:00.203Z,988.9
2017-10-26T01:56:02.262Z,988.8
2017-10-26T01:57:04.204Z,988.8
2017-10-26T01:58:06.296Z,988.8
2017-10-26T01:59:08.256Z,988.8
2017-10-26T02:00:10.246Z,988.8
2017-10-26T02:01:12.156Z,988.8
2017-10-26T02:02:14.029Z,988.8
2017-10-26T02:03:16.362Z,988.8
2017-10-26T02:04:18.290Z,988.8
2017-10-26T02:05:20.273Z,988.8
2017-10-26T02:06:22.159Z,988.7
2017-10-26T02:07:24.122Z,988.7
2017-10-26T02:08:26.093Z,988.6
2017-10-26T02:09:28.045Z,988.7
2017-10-26T02:10:30.007Z,988.7
2017-10-26T02:11:31.972Z,988.6
2017-10-26T02:12:33.901Z,988.6
2017-10-26T02:13:35.963Z,988.6
2017-10-26T02:14:37.890Z,988.7
2017-10-26T02:15:39.933Z,988.6
2017-10-26T02:16:41.850Z,988.6
2017-10-26T02:17:43.758Z,988.6
2017-10-26T02:18:45.752Z,988.5
2017-10-26T02:19:47.689Z,988.5
2017-10-26T02:20:49.720Z,988.5
2017-10-26T02:21:51.629Z,988.4
2017-10-26T02:22:53.524Z,988.5
2017-10-26T02:23:55.518Z,988.5
2017-10-26T02:24:57.405Z,988.4
2017-10-26T02:25:59.328Z,988.4
2017-10-26T02:27:01.240Z,988.5
2017-10-26T02:28:03.191Z,988.5
2017-10-26T02:29:05.436Z,988.6
2017-10-26T02:30:07.355Z,988.6
2017-10-26T02:31:09.276Z,988.5
2017-10-26T02:32:11.201Z,988.6
2017-10-26T02:33:13.105Z,988.6
2017-10-26T02:34:15.172Z,988.6
2017-10-26T02:35:17.071Z,988.6
2017-10-26T02:36:18.963Z,988.7
2017-10-26T02:37:20.886Z,988.7
2017-10-26T02:38:22.783Z,988.8
2017-10-26T02:39:24.973Z,988.8
2017-10-26T02:40:26.842Z,988.8
2017-10-26T02:41:28.764Z,988.7
2017-10-26T02:42:30.806Z,988.8
2017-10-26T02:43:32.660Z,988.8
2017-10-26T02:44:34.864Z,988.9
2017-10-26T02:45:36.878Z,988.9
2017-10-26T02:46:38.790Z,988.9
2017-10-26T02:47:40.686Z,988.8
2017-10-26T02:48:42.625Z,988.9
2017-10-26T02:49:44.645Z,988.8
2017-10-26T02:50:46.521Z,988.8
2017-10-26T02:51:48.379Z,988.7
2017-10-26T02:52:50.274Z,988.8
2017-10-26T02:53:52.171Z,988.7
2017-10-26T02:54:54.529Z,988.7
2017-10-26T02:55:56.459Z,988.6
2017-10-26T02:56:58.418Z,988.6
2017-10-26T02:58:00.286Z,988.6
2017-10-26T02:59:02.247Z,988.6
2017-10-26T03:00:04.460Z,988.6
2017-10-26T03:01:06.359Z,988.7
2017-10-26T03:02:08.204Z,988.8
2017-10-26T03:03:10.038Z,988.8
2017-10-26T03:04:11.934Z,988.9
2017-10-26T03:05:13.866Z,988.9
2017-10-26T03:06:15.854Z,988.9
2017-10-26T03:07:17.823Z,988.9
2017-10-26T03:08:19.755Z,988.9
2017-10-26T03:09:21.606Z,989
2017-10-26T03:10:23.577Z,989
2017-10-26T03:11:25.649Z,989
2017-10-26T03:12:27.535Z,989
2017-10-26T03:13:29.433Z,989
2017-10-26T03:14:31.297Z,989
2017-10-26T03:15:33.449Z,989
2017-10-26T03:16:35.422Z,989
2017-10-26T03:17:37.327Z,988.8
2017-10-26T03:18:39.255Z,989
2017-10-26T03:19:41.133Z,989
2017-10-26T03:20:43.085Z,988.9
2017-10-26T03:21:45.043Z,988.9
2017-10-26T03:22:46.889Z,988.9
2017-10-26T03:23:49.023Z,988.8
2017-10-26T03:24:50.925Z,988.9
2017-10-26T03:25:52.910Z,988.8
2017-10-26T03:26:54.819Z,988.8
2017-10-26T03:27:56.703Z,988.8
2017-10-26T03:28:58.692Z,988.8
2017-10-26T03:30:00.596Z,988.8
2017-10-26T03:31:02.519Z,988.8
2017-10-26T03:32:04.444Z,988.7
2017-10-26T03:33:06.402Z,988.8
2017-10-26T03:34:08.365Z,988.7
2017-10-26T03:35:10.344Z,988.7
2017-10-26T03:36:12.312Z,988.8
2017-10-26T03:37:14.247Z,988.7
2017-10-26T03:38:16.204Z,988.7
2017-10-26T03:39:18.158Z,988.8
2017-10-26T03:40:20.097Z,988.8
2017-10-26T03:41:22.317Z,988.7
2017-10-26T03:42:24.271Z,988.8
2017-10-26T03:43:26.158Z,988.7
2017-10-26T03:44:28.067Z,988.7
2017-10-26T03:45:30.030Z,988.8
2017-10-26T03:46:31.954Z,988.8
2017-10-26T03:47:33.957Z,988.8
2017-10-26T03:48:36.055Z,988.8
2017-10-26T03:49:37.998Z,988.8
2017-10-26T03:50:39.849Z,988.8
2017-10-26T03:51:41.774Z,988.9
2017-10-26T03:52:43.630Z,988.8
2017-10-26T03:53:45.912Z,988.8
2017-10-26T03:54:47.889Z,988.8
2017-10-26T03:55:49.836Z,988.8
2017-10-26T03:56:52.138Z,988.8
2017-10-26T03:57:54.010Z,988.8
2017-10-26T03:58:55.892Z,988.8
2017-10-26T03:59:57.801Z,988.9
2017-10-26T04:00:59.834Z,988.8
2017-10-26T04:02:01.747Z,988.7
2017-10-26T04:03:03.755Z,988.7
2017-10-26T04:04:05.668Z,988.8
2017-10-26T04:05:07.617Z,988.8
2017-10-26T04:06:09.565Z,988.8
2017-10-26T04:07:12.051Z,988.8
2017-10-26T04:08:13.942Z,988.9
2017-10-26T04:09:15.855Z,988.8
2017-10-26T04:10:17.760Z,988.8
2017-10-26T04:11:19.667Z,988.8
2017-10-26T04:12:21.596Z,988.8
2017-10-26T04:13:23.599Z,988.8
2017-10-26T04:14:25.526Z,988.8
2017-10-26T04:15:27.534Z,988.7
2017-10-26T04:16:29.434Z,988.7
2017-10-26T04:17:31.668Z,988.7
2017-10-26T04:18:33.580Z,988.6
2017-10-26T04:19:35.458Z,988.5
2017-10-26T04:20:37.406Z,988.5
2017-10-26T04:21:39.341Z,988.6
2017-10-26T04:22:41.678Z,988.5
2017-10-26T04:23:43.588Z,988.6
2017-10-26T04:24:45.515Z,988.6
2017-10-26T04:25:47.505Z,988.5
2017-10-26T04:26:49.390Z,988.6
2017-10-26T04:27:51.301Z,988.6
2017-10-26T04:28:53.247Z,988.6
2017-10-26T04:29:55.233Z,988.6
2017-10-26T04:30:57.257Z,988.6
2017-10-26T04:31:59.114Z,988.7
2017-10-26T04:33:01.130Z,988.6
2017-10-26T04:34:03.043Z,988.6
2017-10-26T04:35:04.926Z,988.7
2017-10-26T04:36:06.836Z,988.7
2017-10-26T04:37:08.777Z,988.8
2017-10-26T04:38:10.728Z,988.8
2017-10-26T04:39:12.610Z,988.7
2017-10-26T04:40:14.542Z,988.8
2017-10-26T04:41:16.448Z,988.8
2017-10-26T04:42:18.798Z,988.8
2017-10-26T04:43:20.817Z,988.8
2017-10-26T04:44:22.737Z,988.8
2017-10-26T04:45:24.718Z,988.8
2017-10-26T04:46:26.768Z,988.7
2017-10-26T04:47:28.657Z,988.8
2017-10-26T04:48:30.620Z,988.7
2017-10-26T04:49:32.550Z,988.7
2017-10-26T04:50:34.455Z,988.7
2017-10-26T04:51:36.393Z,988.6
2017-10-26T04:52:38.316Z,988.7
2017-10-26T04:53:40.565Z,988.6
2017-10-26T04:54:42.549Z,988.6
2017-10-26T04:55:44.638Z,988.7
2017-10-26T04:56:46.576Z,988.6
2017-10-26T04:57:48.512Z,988.7
2017-10-26T04:58:50.770Z,988.7
2017-10-26T04:59:52.683Z,988.7
2017-10-26T05:00:54.669Z,988.7
2017-10-26T05:01:56.596Z,988.7
2017-10-26T05:02:58.567Z,988.6
2017-10-26T05:04:00.860Z,988.6
2017-10-26T05:05:02.815Z,988.7
2017-10-26T05:06:04.901Z,988.7
2017-10-26T05:07:06.820Z,988.6
2017-10-26T05:08:08.731Z,988.7
2017-10-26T05:09:10.685Z,988.6
2017-10-26T05:10:12.692Z,988.7
2017-10-26T05:11:14.579Z,988.7
2017-10-26T05:12:16.527Z,988.7
2017-10-26T05:13:18.601Z,988.7
2017-10-26T05:14:20.582Z,988.6
2017-10-26T05:15:22.509Z,988.6
2017-10-26T05:16:24.375Z,988.5
2017-10-26T05:17:26.267Z,988.5
2017-10-26T05:18:28.164Z,988.4
2017-10-26T05:19:30.385Z,988.5
2017-10-26T05:20:32.301Z,988.4
2017-10-26T05:21:34.197Z,988.4
2017-10-26T05:22:36.113Z,988.4
2017-10-26T05:23:38.050Z,988.5
2017-10-26T05:24:40.238Z,988.5
2017-10-26T05:25:42.169Z,988.5
2017-10-26T05:26:44.121Z,988.5
2017-10-26T05:27:46.175Z,988.5
2017-10-26T05:28:48.127Z,988.5
2017-10-26T05:29:50.077Z,988.5
2017-10-26T05:30:52.034Z,988.5
2017-10-26T05:31:54.134Z,988.5
2017-10-26T05:32:56.033Z,988.5
2017-10-26T05:33:57.931Z,988.5
2017-10-26T05:35:00.129Z,988.5
2017-10-26T05:36:02.078Z,988.5
2017-10-26T05:37:04.008Z,988.5
2017-10-26T05:38:05.893Z,988.5
2017-10-26T05:39:07.855Z,988.5
2017-10-26T05:40:09.831Z,988.5
2017-10-26T05:41:11.807Z,988.6
2017-10-26T05:42:13.753Z,988.6
2017-10-26T05:43:15.740Z,988.6
2017-10-26T05:44:17.668Z,988.6
2017-10-26T05:45:19.690Z,988.6
2017-10-26T05:46:21.624Z,988.6
2017-10-26T05:47:23.561Z,988.6
2017-10-26T05:48:25.482Z,988.7
2017-10-26T05:49:27.432Z,988.7
2017-10-26T05:50:29.334Z,988.7
2017-10-26T05:51:31.263Z,988.7
2017-10-26T05:52:33.160Z,988.8
2017-10-26T05:53:35.090Z,988.8
2017-10-26T05:54:37.093Z,988.9
2017-10-26T05:55:39.000Z,988.9
2017-10-26T05:56:40.839Z,988.8
2017-10-26T05:57:42.686Z,988.8
2017-10-26T05:58:44.617Z,988.9
2017-10-26T05:59:46.513Z,988.9
2017-10-26T06:00:48.429Z,988.8
2017-10-26T06:01:50.559Z,988.9
2017-10-26T06:02:52.435Z,988.9
2017-10-26T06:03:54.479Z,988.9
2017-10-26T06:04:56.432Z,988.8
2017-10-26T06:05:58.584Z,988.8
2017-10-26T06:07:00.456Z,988.8
2017-10-26T06:08:02.365Z,988.8
2017-10-26T06:09:04.246Z,988.9
2017-10-26T06:10:06.183Z,988.8
2017-10-26T06:11:08.135Z,988.7
2017-10-26T06:12:10.088Z,988.7
2017-10-26T06:13:12.001Z,988.7
2017-10-26T06:14:14.003Z,988.7
2017-10-26T06:15:15.951Z,988.7
2017-10-26T06:16:17.973Z,988.7
2017-10-26T06:17:19.894Z,988.7
2017-10-26T06:18:21.883Z,988.7
2017-10-26T06:19:23.863Z,988.7
2017-10-26T06:20:25.809Z,988.7
2017-10-26T06:21:27.844Z,988.7
2017-10-26T06:22:29.787Z,988.6
2017-10-26T06:23:31.649Z,988.6
2017-10-26T06:24:33.542Z,988.6
2017-10-26T06:25:35.481Z,988.6
2017-10-26T06:26:37.450Z,988.6
2017-10-26T06:27:39.422Z,988.5
2017-10-26T06:28:41.293Z,988.5
2017-10-26T06:29:43.225Z,988.5
2017-10-26T06:30:45.117Z,988.4
2017-10-26T06:31:47.050Z,988.4
2017-10-26T06:32:49.055Z,988.4
2017-10-26T06:33:50.903Z,988.4
2017-10-26T06:34:52.816Z,988.5
2017-10-26T06:35:54.693Z,988.5
2017-10-26T06:36:56.968Z,988.5
2017-10-26T06:37:58.866Z,988.5
2017-10-26T06:39:00.789Z,988.6
2017-10-26T06:40:02.712Z,988.6
2017-10-26T06:41:04.625Z,988.6
2017-10-26T06:42:07.278Z,988.6
2017-10-26T06:43:09.190Z,988.7
2017-10-26T06:44:11.130Z,988.7
2017-10-26T06:45:13.114Z,988.7
2017-10-26T06:46:15.039Z,988.6
2017-10-26T06:47:16.968Z,988.6
2017-10-26T06:48:18.916Z,988.6
2017-10-26T06:49:20.794Z,988.7
2017-10-26T06:50:22.740Z,988.7
2017-10-26T06:51:24.648Z,988.6
2017-10-26T06:52:26.860Z,988.6
2017-10-26T06:53:28.814Z,988.6
2017-10-26T06:54:30.755Z,988.6
2017-10-26T06:55:32.794Z,988.5
2017-10-26T06:56:34.735Z,988.5
2017-10-26T06:57:37.033Z,988.6
2017-10-26T06:58:38.889Z,988.6
2017-10-26T06:59:40.785Z,988.5
2017-10-26T07:00:42.703Z,988.6
2017-10-26T07:01:44.700Z,988.5
2017-10-26T07:02:46.721Z,988.5
2017-10-26T07:03:48.706Z,988.5
2017-10-26T07:04:50.695Z,988.5
2017-10-26T07:05:52.641Z,988.6
2017-10-26T07:06:54.540Z,988.6
2017-10-26T07:07:56.545Z,988.5
2017-10-26T07:08:58.494Z,988.6
2017-10-26T07:10:00.458Z,988.7
2017-10-26T07:11:02.452Z,988.6
2017-10-26T07:12:04.487Z,988.6
2017-10-26T07:13:06.643Z,988.6
2017-10-26T07:14:08.631Z,988.6
2017-10-26T07:15:10.601Z,988.6
2017-10-26T07:16:12.478Z,988.6
2017-10-26T07:17:14.380Z,988.6
2017-10-26T07:18:16.348Z,988.6
2017-10-26T07:19:18.331Z,988.7
2017-10-26T07:20:20.324Z,988.6
2017-10-26T07:21:22.276Z,988.7
2017-10-26T07:22:24.213Z,988.7
2017-10-26T07:23:26.525Z,988.6
2017-10-26T07:24:28.472Z,988.6
2017-10-26T07:25:30.419Z,988.7
2017-10-26T07:26:32.382Z,988.7
2017-10-26T07:27:34.329Z,988.8
2017-10-26T07:28:36.335Z,988.8
2017-10-26T07:29:38.304Z,988.8
2017-10-26T07:30:40.203Z,988.9
2017-10-26T07:31:42.144Z,988.8
2017-10-26T07:32:44.074Z,988.8
2017-10-26T07:33:46.039Z,988.7
2017-10-26T07:34:47.948Z,988.7
2017-10-26T07:35:49.890Z,988.8
2017-10-26T07:36:51.844Z,988.7
2017-10-26T07:37:53.782Z,988.7
2017-10-26T07:38:55.693Z,988.6
2017-10-26T07:39:57.648Z,988.6
2017-10-26T07:40:59.574Z,988.6
2017-10-26T07:42:01.506Z,988.7
2017-10-26T07:43:03.539Z,988.7
2017-10-26T07:44:05.504Z,988.6
2017-10-26T07:45:07.430Z,988.7
2017-10-26T07:46:09.408Z,988.7
2017-10-26T07:47:11.316Z,988.7
2017-10-26T07:48:13.304Z,988.7
2017-10-26T07:49:15.310Z,988.8
2017-10-26T07:50:17.226Z,988.9
2017-10-26T07:51:19.207Z,988.8
2017-10-26T07:52:21.099Z,988.9
2017-10-26T07:53:23.048Z,988.8
2017-10-26T07:54:25.081Z,988.8
2017-10-26T07:55:26.952Z,988.8
2017-10-26T07:56:28.899Z,988.8
2017-10-26T07:57:30.908Z,988.9
2017-10-26T07:58:32.929Z,989
2017-10-26T07:59:34.816Z,989
2017-10-26T08:00:36.698Z,989
2017-10-26T08:01:38.639Z,989
2017-10-26T08:02:40.692Z,989
2017-10-26T08:03:42.642Z,989
2017-10-26T08:04:44.591Z,989.2
2017-10-26T08:05:46.552Z,989.2
2017-10-26T08:06:48.481Z,989.2
2017-10-26T08:07:50.508Z,989.2
2017-10-26T08:08:52.561Z,989.3
2017-10-26T08:09:54.793Z,989.2
2017-10-26T08:10:56.668Z,989.3
2017-10-26T08:11:58.587Z,989.3
2017-10-26T08:13:00.681Z,989.4
2017-10-26T08:14:02.648Z,989.5
2017-10-26T08:15:04.614Z,989.5
2017-10-26T08:16:06.526Z,989.5
2017-10-26T08:17:08.446Z,989.4
2017-10-26T08:18:10.336Z,989.3
2017-10-26T08:19:12.270Z,989.3
2017-10-26T08:20:14.564Z,989.3
2017-10-26T08:21:16.497Z,989.3
2017-10-26T08:22:18.519Z,989.3
2017-10-26T08:23:20.429Z,989.3
2017-10-26T08:24:22.298Z,989.3
2017-10-26T08:25:24.574Z,989.3
2017-10-26T08:26:26.471Z,989.3
2017-10-26T08:27:28.432Z,989.2
2017-10-26T08:28:30.426Z,989.2
2017-10-26T08:29:32.387Z,989.1
2017-10-26T08:30:34.311Z,989.1
2017-10-26T08:31:36.260Z,989.1
2017-10-26T08:32:38.249Z,989
2017-10-26T08:33:40.109Z,989
2017-10-26T08:34:41.969Z,988.8
2017-10-26T08:35:43.906Z,988.9
2017-10-26T08:36:45.823Z,988.8
2017-10-26T08:37:47.789Z,988.8
2017-10-26T08:38:49.775Z,988.8
2017-10-26T08:39:51.709Z,988.7
2017-10-26T08:40:53.717Z,988.8
2017-10-26T08:41:55.604Z,988.8
2017-10-26T08:42:57.510Z,988.7
2017-10-26T08:43:59.421Z,988.7
2017-10-26T08:45:01.345Z,988.8
2017-10-26T08:46:03.292Z,988.8
2017-10-26T08:47:05.257Z,988.9
2017-10-26T08:48:07.180Z,988.8
2017-10-26T08:49:09.148Z,988.8
2017-10-26T08:50:11.047Z,988.8
2017-10-26T08:51:13.037Z,988.8
2017-10-26T08:52:15.000Z,988.8
2017-10-26T08:53:16.902Z,988.8
2017-10-26T08:54:18.796Z,988.9
2017-10-26T08:55:20.698Z,988.8
2017-10-26T08:56:22.688Z,988.9
2017-10-26T08:57:24.625Z,988.9
2017-10-26T08:58:26.535Z,989
2017-10-26T08:59:28.372Z,988.9
2017-10-26T09:00:30.288Z,989
2017-10-26T09:01:32.251Z,988.9
2017-10-26T09:02:34.628Z,988.9
2017-10-26T09:03:36.550Z,988.9
2017-10-26T09:04:38.473Z,988.9
2017-10-26T09:05:40.473Z,988.9
2017-10-26T09:06:42.397Z,988.9
2017-10-26T09:07:44.329Z,988.9
2017-10-26T09:08:46.285Z,989
2017-10-26T09:09:48.317Z,988.9
2017-10-26T09:10:50.266Z,989
2017-10-26T09:11:52.215Z,988.9
2017-10-26T09:12:54.123Z,988.9
2017-10-26T09:13:56.015Z,988.9
2017-10-26T09:14:57.914Z,988.9
2017-10-26T09:16:00.125Z,988.9
2017-10-26T09:17:02.091Z,988.7
2017-10-26T09:18:03.994Z,988.8
2017-10-26T09:19:06.000Z,988.8
2017-10-26T09:20:07.969Z,988.9
2017-10-26T09:21:09.919Z,988.8
2017-10-26T09:22:11.863Z,988.9
2017-10-26T09:23:13.848Z,988.9
2017-10-26T09:24:15.783Z,988.9
2017-10-26T09:25:17.706Z,989
2017-10-26T09:26:19.553Z,989
2017-10-26T09:27:21.545Z,989
2017-10-26T09:28:23.465Z,988.9
2017-10-26T09:29:25.411Z,988.9
2017-10-26T09:30:27.335Z,988.8
2017-10-26T09:31:29.212Z,988.9
2017-10-26T09:32:31.196Z,988.9
2017-10-26T09:33:33.156Z,988.9
2017-10-26T09:34:35.211Z,988.8
2017-10-26T09:35:37.194Z,988.7
2017-10-26T09:36:39.182Z,988.8
2017-10-26T09:37:41.442Z,988.7
2017-10-26T09:38:43.517Z,988.7
2017-10-26T09:39:45.456Z,988.7
2017-10-26T09:40:47.366Z,988.7
2017-10-26T09:41:49.297Z,988.8
2017-10-26T09:42:51.299Z,988.7
2017-10-26T09:43:53.275Z,988.7
2017-10-26T09:44:55.187Z,988.7
2017-10-26T09:45:57.091Z,988.7
2017-10-26T09:46:59.027Z,988.8
2017-10-26T09:48:00.972Z,988.8
2017-10-26T09:49:02.892Z,988.8
2017-10-26T09:50:04.839Z,988.7
2017-10-26T09:51:06.733Z,988.8
2017-10-26T09:52:08.632Z,988.7
2017-10-26T09:53:10.561Z,988.7
2017-10-26T09:54:12.469Z,988.7
2017-10-26T09:55:14.402Z,988.9
2017-10-26T09:56:16.338Z,988.8
2017-10-26T09:57:18.239Z,988.8
2017-10-26T09:58:20.441Z,988.8
2017-10-26T09:59:22.346Z,988.8
2017-10-26T10:00:24.272Z,988.8
2017-10-26T10:01:26.207Z,988.9
2017-10-26T10:02:28.217Z,988.9
2017-10-26T10:03:30.135Z,988.8
2017-10-26T10:04:32.047Z,988.9
2017-10-26T10:05:33.999Z,988.8
2017-10-26T10:06:35.882Z,988.8
2017-10-26T10:07:37.868Z,988.8
2017-10-26T10:08:39.978Z,988.8
2017-10-26T10:09:41.863Z,988.7
2017-10-26T10:10:43.824Z,988.7
2017-10-26T10:11:45.753Z,988.7
2017-10-26T10:12:47.714Z,988.7
2017-10-26T10:13:49.757Z,988.7
2017-10-26T10:14:51.775Z,988.7
2017-10-26T10:15:53.755Z,988.7
2017-10-26T10:16:55.622Z,988.6
2017-10-26T10:17:57.582Z,988.6
2017-10-26T10:18:59.649Z,988.5
2017-10-26T10:20:01.809Z,988.5
2017-10-26T10:21:03.783Z,988.6
2017-10-26T10:22:05.729Z,988.6
2017-10-26T10:23:07.683Z,988.5
2017-10-26T10:24:09.591Z,988.4
2017-10-26T10:25:11.560Z,988.5
2017-10-26T10:26:13.532Z,988.5
2017-10-26T10:27:15.500Z,988.6
2017-10-26T10:28:17.419Z,988.6
2017-10-26T10:29:19.378Z,988.6
2017-10-26T10:30:21.296Z,988.5
2017-10-26T10:31:23.304Z,988.5
2017-10-26T10:32:25.256Z,988.6
2017-10-26T10:33:27.217Z,988.5
2017-10-26T10:34:29.215Z,988.6
2017-10-26T10:35:31.083Z,988.5
2017-10-26T10:36:33.011Z,988.6
2017-10-26T10:37:34.960Z,988.6
2017-10-26T10:38:36.881Z,988.4
2017-10-26T10:39:38.884Z,988.5
2017-10-26T10:40:40.893Z,988.5
2017-10-26T10:41:42.853Z,988.4
2017-10-26T10:42:44.820Z,988.5
2017-10-26T10:43:46.792Z,988.5
2017-10-26T10:44:48.873Z,988.5
2017-10-26T10:45:50.885Z,988.4
2017-10-26T10:46:52.822Z,988.3
2017-10-26T10:47:54.728Z,988.3
2017-10-26T10:48:56.691Z,988.3
2017-10-26T10:49:58.676Z,988.2
2017-10-26T10:51:00.669Z,988.2
2017-10-26T10:52:03.634Z,988.3
2017-10-26T10:53:05.597Z,988.2
2017-10-26T10:54:07.618Z,988.3
2017-10-26T10:55:10.096Z,988.4
2017-10-26T10:56:12.111Z,988.3
2017-10-26T10:57:13.979Z,988.4
2017-10-26T10:58:15.897Z,988.4
2017-10-26T10:59:17.872Z,988.4
2017-10-26T11:00:19.960Z,988.3
2017-10-26T11:01:21.940Z,988.4
2017-10-26T11:02:23.884Z,988.3
2017-10-26T11:03:25.813Z,988.2
2017-10-26T11:04:27.783Z,988.1
2017-10-26T11:05:29.871Z,988.2
2017-10-26T11:06:31.991Z,988.1
2017-10-26T11:07:33.922Z,988.3
2017-10-26T11:08:35.840Z,988.2
2017-10-26T11:09:37.773Z,988.3
2017-10-26T11:10:39.697Z,988.1
2017-10-26T11:11:41.691Z,988.2
2017-10-26T11:12:43.618Z,988.2
2017-10-26T11:13:45.575Z,988.2
2017-10-26T11:14:47.733Z,988.1
2017-10-26T11:15:49.879Z,988.1
2017-10-26T11:16:51.778Z,988
2017-10-26T11:17:53.684Z,988
2017-10-26T11:18:55.655Z,988
2017-10-26T11:19:57.573Z,988
2017-10-26T11:20:59.688Z,988
2017-10-26T11:22:01.611Z,988
2017-10-26T11:23:03.580Z,988
2017-10-26T11:24:05.533Z,988
2017-10-26T11:25:07.440Z,988
2017-10-26T11:26:09.449Z,988
2017-10-26T11:27:11.376Z,988.1
2017-10-26T11:28:13.362Z,988
2017-10-26T11:29:15.236Z,987.9
2017-10-26T11:30:17.199Z,987.8
2017-10-26T11:31:19.150Z,987.7
2017-10-26T11:32:21.105Z,987.8
2017-10-26T11:33:23.055Z,987.8
2017-10-26T11:34:24.913Z,987.8
2017-10-26T11:35:26.890Z,987.8
2017-10-26T11:36:28.890Z,987.8
2017-10-26T11:37:30.796Z,987.7
2017-10-26T11:38:32.820Z,987.8
2017-10-26T11:39:34.793Z,987.8
2017-10-26T11:40:36.716Z,987.8
2017-10-26T11:41:38.674Z,987.7
2017-10-26T11:42:40.648Z,987.6
2017-10-26T11:43:42.680Z,987.7
2017-10-26T11:44:44.628Z,987.5
2017-10-26T11:45:46.588Z,987.7
2017-10-26T11:46:48.609Z,987.7
2017-10-26T11:47:50.596Z,987.7
2017-10-26T11:48:52.513Z,987.7
2017-10-26T11:49:54.416Z,987.6
2017-10-26T11:50:56.410Z,987.6
2017-10-26T11:51:58.332Z,987.6
2017-10-26T11:53:00.229Z,987.6
2017-10-26T11:54:02.214Z,987.5
2017-10-26T11:55:04.136Z,987.5
2017-10-26T11:56:06.023Z,987.4
2017-10-26T11:57:08.027Z,987.5
2017-10-26T11:58:09.965Z,987.5
2017-10-26T11:59:11.905Z,987.5
2017-10-26T12:00:13.845Z,987.5
2017-10-26T12:01:15.967Z,987.6
2017-10-26T12:02:17.888Z,987.5
2017-10-26T12:03:19.963Z,987.5
2017-10-26T12:04:21.873Z,987.5
2017-10-26T12:05:23.825Z,987.4
2017-10-26T12:06:25.744Z,987.5
2017-10-26T12:07:27.814Z,987.4
2017-10-26T12:08:29.807Z,987.4
2017-10-26T12:09:31.689Z,987.5
2017-10-26T12:10:33.661Z,987.6
2017-10-26T12:11:35.566Z,987.5
2017-10-26T12:12:37.547Z,987.5
2017-10-26T12:13:39.546Z,987.5
2017-10-26T12:14:41.483Z,987.4
2017-10-26T12:15:43.421Z,987.5
2017-10-26T12:16:45.364Z,987.4
2017-10-26T12:17:47.352Z,987.5
2017-10-26T12:18:49.305Z,987.4
2017-10-26T12:19:51.281Z,987.5
2017-10-26T12:20:53.213Z,987.4
2017-10-26T12:21:55.135Z,987.3
2017-10-26T12:22:57.123Z,987.3
2017-10-26T12:23:59.088Z,987.3
2017-10-26T12:25:01.075Z,987.3
2017-10-26T12:26:03.006Z,987.3
2017-10-26T12:27:05.027Z,987.2
2017-10-26T12:28:06.933Z,987.2
2017-10-26T12:29:08.877Z,987.2
2017-10-26T12:30:10.876Z,987.2
2017-10-26T12:31:12.809Z,987.1
2017-10-26T12:32:14.824Z,987.1
2017-10-26T12:33:16.837Z,987.1
2017-10-26T12:34:18.794Z,987.1
2017-10-26T12:35:20.718Z,987.2
2017-10-26T12:36:22.672Z,987.1
2017-10-26T12:37:24.588Z,987
2017-10-26T12:38:26.512Z,987.1
2017-10-26T12:39:28.419Z,987.1
2017-10-26T12:40:30.339Z,987.1
2017-10-26T12:41:32.369Z,987.1
2017-10-26T12:42:34.323Z,987.1
2017-10-26T12:43:36.255Z,987.2
2017-10-26T12:44:38.356Z,987.1
2017-10-26T12:45:40.298Z,987.2
2017-10-26T12:46:42.314Z,987.3
2017-10-26T12:47:44.210Z,987.3
2017-10-26T12:48:46.182Z,987.3
2017-10-26T12:49:48.074Z,987.2
2017-10-26T12:50:50.286Z,987.2
2017-10-26T12:51:52.229Z,987.2
2017-10-26T12:52:54.174Z,987.3
2017-10-26T12:53:56.162Z,987.3
2017-10-26T12:54:58.221Z,987.3
2017-10-26T12:56:00.233Z,987.3
2017-10-26T12:57:02.155Z,987.3
2017-10-26T12:58:04.111Z,987.3
2017-10-26T12:59:06.188Z,987.3
2017-10-26T13:00:08.164Z,987.2
2017-10-26T13:01:10.123Z,987.2
2017-10-26T13:02:12.188Z,987.2
2017-10-26T13:03:14.069Z,987.3
2017-10-26T13:04:16.020Z,987.3
2017-10-26T13:05:17.981Z,987.3
2017-10-26T13:06:19.919Z,987.3
2017-10-26T13:07:21.851Z,987.2
2017-10-26T13:08:23.796Z,987.2
2017-10-26T13:09:25.791Z,987.3
2017-10-26T13:10:27.744Z,987.3
2017-10-26T13:11:29.663Z,987.3
2017-10-26T13:12:31.576Z,987.3
2017-10-26T13:13:33.621Z,987.3
2017-10-26T13:14:35.522Z,987.2
2017-10-26T13:15:37.473Z,987.2
2017-10-26T13:16:39.432Z,987.1
2017-10-26T13:17:41.610Z,987.1
2017-10-26T13:18:43.525Z,987
2017-10-26T13:19:45.498Z,987
2017-10-26T13:20:47.548Z,987.1